Time;durP1;ratioP1;P1;durP2;ratioP2;P2;SDS_P1;SDS_P2;PMS_P1;PMS_P2;Temp;Humidity;BMP_temperature;BMP_pressure;BME280_temperature;BME280_humidity;BME280_pressure;Samples;Min_cycle;Max_cycle;Signal;HPM_P1;HPM_P2
2022/03/11 00:00:00;;;;;;;17.92;10.05;;;27.40;99.90;;;;;;5053466;28;20025;-61
2022/03/11 00:02:27;;;;;;;16.70;8.77;;;27.30;99.90;;;;;;5029975;28;20037;-62
2022/03/11 00:04:54;;;;;;;22.10;7.60;;;27.30;99.90;;;;;;5026578;28;20056;-62
2022/03/11 00:07:21;;;;;;;15.95;7.05;;;27.30;99.90;;;;;;5032531;28;20026;-61
2022/03/11 00:09:47;;;;;;;14.00;7.70;;;27.30;99.90;;;;;;5019191;28;20378;-62
2022/03/11 00:12:14;;;;;;;21.48;6.60;;;27.30;99.90;;;;;;5016224;28;20112;-64
2022/03/11 00:14:41;;;;;;;12.18;6.00;;;27.10;99.90;;;;;;5049927;28;20116;-63
2022/03/11 00:17:07;;;;;;;14.05;5.50;;;27.10;99.90;;;;;;5052873;28;20037;-62
2022/03/11 00:19:34;;;;;;;15.25;6.50;;;27.10;99.90;;;;;;5053465;28;20025;-62
2022/03/11 00:22:01;;;;;;;13.65;6.38;;;27.20;99.90;;;;;;5029845;28;20525;-61
2022/03/11 00:24:28;;;;;;;26.85;8.98;;;27.20;99.90;;;;;;5021167;28;20049;-59
2022/03/11 00:26:55;;;;;;;17.80;11.20;;;27.40;99.90;;;;;;5011395;28;20218;-61
2022/03/11 00:29:21;;;;;;;24.25;13.93;;;27.60;99.90;;;;;;5011480;28;20026;-61
2022/03/11 00:31:48;;;;;;;16.55;11.07;;;27.80;99.90;;;;;;5043611;28;20029;-62
2022/03/11 00:34:15;;;;;;;15.77;8.45;;;28.00;99.90;;;;;;5051031;28;20078;-61
2022/03/11 00:36:43;;;;;;;17.85;8.73;;;28.00;99.90;;;;;;5051309;28;20036;-62
2022/03/11 00:39:10;;;;;;;16.88;8.25;;;28.20;99.90;;;;;;5051434;28;20053;-61
2022/03/11 00:41:38;;;;;;;10.52;8.43;;;28.20;99.90;;;;;;5049989;28;20029;-62
2022/03/11 00:44:05;;;;;;;52.58;32.42;;;28.30;99.90;;;;;;5034435;28;20104;-62
2022/03/11 00:46:31;;;;;;;14.23;7.80;;;28.30;99.90;;;;;;5047463;28;20028;-61
2022/03/11 00:48:58;;;;;;;15.77;7.63;;;28.20;99.90;;;;;;5041971;28;20022;-62
2022/03/11 00:51:25;;;;;;;14.02;7.57;;;28.30;99.90;;;;;;5021437;28;20034;-61
2022/03/11 00:53:51;;;;;;;11.88;7.20;;;28.30;99.90;;;;;;5028008;28;20113;-61
2022/03/11 00:56:18;;;;;;;26.30;7.40;;;28.40;99.90;;;;;;5030086;28;20026;-63
2022/03/11 00:58:46;;;;;;;16.33;7.65;;;28.30;99.90;;;;;;5033865;28;20151;-63
2022/03/11 01:01:13;;;;;;;15.70;8.15;;;28.30;99.90;;;;;;5036142;28;20033;-63
2022/03/11 01:03:39;;;;;;;14.23;8.82;;;28.40;99.90;;;;;;5035901;28;20022;-62
2022/03/11 01:06:06;;;;;;;11.60;7.82;;;28.40;99.90;;;;;;5036297;28;20021;-63
2022/03/11 01:08:33;;;;;;;17.92;9.40;;;28.50;99.90;;;;;;5036260;28;20021;-61
2022/03/11 01:11:00;;;;;;;14.98;8.85;;;28.50;99.90;;;;;;5033817;28;20022;-62
2022/03/11 01:13:27;;;;;;;14.65;9.73;;;28.50;99.90;;;;;;5036118;28;20022;-61
2022/03/11 01:15:53;;;;;;;18.15;9.68;;;28.40;99.90;;;;;;5036240;28;20029;-60
2022/03/11 01:18:20;;;;;;;12.98;10.02;;;28.50;99.90;;;;;;5040087;28;20105;-62
2022/03/11 01:20:47;;;;;;;14.73;9.27;;;28.60;99.90;;;;;;5035929;28;20033;-61
2022/03/11 01:23:14;;;;;;;16.70;10.30;;;28.50;99.90;;;;;;5034373;28;20029;-61
2022/03/11 01:25:42;;;;;;;15.23;8.68;;;28.50;99.90;;;;;;5050404;28;20545;-62
2022/03/11 01:28:09;;;;;;;14.57;10.18;;;28.60;99.90;;;;;;5042163;28;20033;-62
2022/03/11 01:30:35;;;;;;;19.40;11.77;;;28.70;99.90;;;;;;5036040;28;20041;-62
2022/03/11 01:33:02;;;;;;;15.32;10.80;;;28.80;99.90;;;;;;5035912;28;20048;-62
2022/03/11 01:35:29;;;;;;;19.02;10.95;;;28.90;99.90;;;;;;5035688;28;20025;-59
2022/03/11 01:37:55;;;;;;;15.27;9.38;;;29.00;99.90;;;;;;5035574;28;20018;-61
2022/03/11 01:40:22;;;;;;;21.00;10.65;;;28.90;99.90;;;;;;5047227;28;20033;-61
2022/03/11 01:42:49;;;;;;;18.42;13.00;;;29.00;99.90;;;;;;5035958;28;20036;-60
2022/03/11 01:45:16;;;;;;;18.42;12.45;;;28.90;99.90;;;;;;5037696;28;20060;-60
2022/03/11 01:47:42;;;;;;;25.08;14.90;;;29.00;99.90;;;;;;5035598;28;20147;-64
2022/03/11 01:50:09;;;;;;;20.65;14.63;;;29.00;99.90;;;;;;5035620;28;20021;-61
2022/03/11 01:52:38;;;;;;;13.43;10.23;;;29.10;99.90;;;;;;5038296;28;20033;-61
2022/03/11 01:55:05;;;;;;;19.52;12.00;;;29.20;99.90;;;;;;5036927;28;20027;-61
2022/03/11 01:57:41;;;;;;;18.30;10.85;;;29.20;99.90;;;;;;5022126;28;20033;-60
2022/03/11 02:00:09;;;;;;;25.83;19.05;;;29.20;99.90;;;;;;5034273;28;20095;-61
2022/03/11 02:02:36;;;;;;;35.55;26.17;;;29.30;99.90;;;;;;5029555;28;20061;-61
2022/03/11 02:05:02;;;;;;;28.88;17.92;;;29.40;99.90;;;;;;5039843;28;20508;-61
2022/03/11 02:07:30;;;;;;;29.52;19.92;;;29.40;99.90;;;;;;5056135;28;20024;-61
2022/03/11 02:09:56;;;;;;;25.00;14.52;;;29.50;99.90;;;;;;5055335;28;20029;-61
2022/03/11 02:12:35;;;;;;;16.63;10.52;;;29.50;99.90;;;;;;5052707;28;20111;-60
2022/03/11 02:15:05;;;;;;;17.98;10.88;;;29.60;99.90;;;;;;5056052;28;20067;-61
2022/03/11 02:17:32;;;;;;;16.20;9.75;;;29.60;99.90;;;;;;5056431;28;20112;-61
2022/03/11 02:19:58;;;;;;;15.10;10.23;;;29.50;99.90;;;;;;5036751;28;20475;-61
2022/03/11 02:22:27;;;;;;;14.02;7.90;;;29.50;99.90;;;;;;5037859;28;20064;-61
2022/03/11 02:24:55;;;;;;;10.43;7.30;;;29.30;99.90;;;;;;5035845;28;20358;-60
2022/03/11 02:27:22;;;;;;;14.93;9.07;;;29.20;99.90;;;;;;5037265;28;20030;-60
2022/03/11 02:29:49;;;;;;;12.20;8.80;;;29.30;99.90;;;;;;5035570;28;20093;-60
2022/03/11 02:32:16;;;;;;;11.75;8.25;;;29.40;99.90;;;;;;5037836;28;20056;-61
2022/03/11 02:34:43;;;;;;;17.60;9.80;;;29.40;99.90;;;;;;5035494;28;20037;-60
2022/03/11 02:37:09;;;;;;;13.50;9.48;;;29.30;99.90;;;;;;5035754;28;20032;-60
2022/03/11 02:39:36;;;;;;;16.42;10.00;;;29.20;99.90;;;;;;5035729;28;20034;-61
2022/03/11 02:42:05;;;;;;;12.90;8.00;;;29.10;99.90;;;;;;5036266;28;20025;-60
2022/03/11 02:44:31;;;;;;;13.88;9.32;;;29.10;99.90;;;;;;5034950;28;20033;-60
2022/03/11 02:47:00;;;;;;;18.48;10.88;;;29.10;99.90;;;;;;5032394;28;20167;-60
2022/03/11 02:49:27;;;;;;;16.50;12.15;;;29.10;99.90;;;;;;5035535;28;20421;-61
2022/03/11 02:51:56;;;;;;;18.92;12.48;;;29.10;99.90;;;;;;5039859;28;20021;-61
2022/03/11 02:54:24;;;;;;;69.82;49.40;;;29.10;99.90;;;;;;5039768;28;20029;-62
2022/03/11 02:56:51;;;;;;;47.13;35.72;;;29.30;99.90;;;;;;5038911;28;20025;-62
2022/03/11 02:59:17;;;;;;;42.58;30.13;;;29.40;99.90;;;;;;5039982;28;20465;-61
2022/03/11 03:01:44;;;;;;;17.65;9.50;;;29.60;99.90;;;;;;5037997;28;20029;-62
2022/03/11 03:04:11;;;;;;;17.13;9.25;;;29.70;99.90;;;;;;5033321;28;20017;-61
2022/03/11 03:06:38;;;;;;;13.77;7.88;;;29.70;99.90;;;;;;5033878;28;20422;-61
2022/03/11 03:09:05;;;;;;;13.85;8.35;;;29.60;99.90;;;;;;5037927;28;20021;-61
2022/03/11 03:11:32;;;;;;;20.35;11.88;;;29.60;99.90;;;;;;5036314;28;20417;-61
2022/03/11 03:13:58;;;;;;;10.40;7.70;;;29.70;99.90;;;;;;5035907;28;20100;-60
2022/03/11 03:16:25;;;;;;;9.13;7.35;;;29.70;99.90;;;;;;5034178;28;20508;-62
2022/03/11 03:18:52;;;;;;;17.23;6.60;;;29.70;99.90;;;;;;5034749;28;20033;-62
2022/03/11 03:21:18;;;;;;;10.27;6.75;;;29.80;99.90;;;;;;5033559;28;20026;-62
2022/03/11 03:23:45;;;;;;;11.55;6.63;;;29.90;99.90;;;;;;5035706;28;20048;-62
2022/03/11 03:26:12;;;;;;;10.98;7.10;;;30.20;99.90;;;;;;5033983;28;20030;-62
2022/03/11 03:28:38;;;;;;;9.35;7.10;;;30.30;99.90;;;;;;5038450;28;20037;-62
2022/03/11 03:31:05;;;;;;;13.93;7.53;;;30.30;99.90;;;;;;5033935;28;20025;-62
2022/03/11 03:33:32;;;;;;;12.35;7.93;;;30.30;99.90;;;;;;5032377;28;20053;-62
2022/03/11 03:35:59;;;;;;;13.43;8.38;;;30.20;99.90;;;;;;5033422;28;20426;-62
2022/03/11 03:38:25;;;;;;;24.10;9.93;;;30.10;99.90;;;;;;5033235;28;20033;-61
2022/03/11 03:40:52;;;;;;;18.33;8.90;;;30.00;99.90;;;;;;5037804;28;20087;-62
2022/03/11 03:43:19;;;;;;;15.57;9.27;;;29.90;99.90;;;;;;5033575;28;20010;-62
2022/03/11 03:45:45;;;;;;;21.45;8.35;;;30.00;99.90;;;;;;5034119;28;20021;-62
2022/03/11 03:48:12;;;;;;;13.10;8.95;;;30.10;99.90;;;;;;5036563;28;20053;-62
2022/03/11 03:50:39;;;;;;;10.70;7.68;;;30.20;99.90;;;;;;5038634;28;20072;-63
2022/03/11 03:53:05;;;;;;;14.20;8.50;;;30.30;99.90;;;;;;5030590;28;20040;-61
2022/03/11 03:55:32;;;;;;;12.43;8.07;;;30.30;99.90;;;;;;5033221;28;20108;-62
2022/03/11 03:57:59;;;;;;;15.80;8.95;;;30.30;99.90;;;;;;5037187;28;20040;-61
2022/03/11 04:00:26;;;;;;;12.68;8.52;;;30.30;99.90;;;;;;5034355;28;20382;-62
2022/03/11 04:02:52;;;;;;;15.60;8.63;;;30.50;99.90;;;;;;5035148;28;20025;-62
2022/03/11 04:05:21;;;;;;;13.57;7.65;;;30.60;99.90;;;;;;5036185;28;20524;-62
2022/03/11 04:07:49;;;;;;;15.05;8.43;;;30.50;99.90;;;;;;5038022;28;20047;-61
2022/03/11 04:10:20;;;;;;;18.33;9.35;;;30.40;99.90;;;;;;5040356;28;20021;-60
2022/03/11 04:12:46;;;;;;;18.33;9.52;;;30.30;99.90;;;;;;5032762;28;20068;-61
2022/03/11 04:15:13;;;;;;;13.55;8.25;;;30.30;99.90;;;;;;5033112;28;20104;-60
2022/03/11 04:17:40;;;;;;;16.17;8.05;;;30.50;99.90;;;;;;5032862;28;20156;-61
2022/03/11 04:20:08;;;;;;;11.63;5.95;;;30.70;99.90;;;;;;5032871;28;20025;-61
2022/03/11 04:22:41;;;;;;;12.80;7.57;;;30.80;99.90;;;;;;5033331;28;20033;-59
2022/03/11 04:25:10;;;;;;;12.13;7.18;;;30.80;99.90;;;;;;5034517;28;20026;-60
2022/03/11 04:27:37;;;;;;;12.02;8.05;;;30.80;99.90;;;;;;5030690;28;20111;-60
2022/03/11 04:30:05;;;;;;;24.35;11.68;;;30.80;99.90;;;;;;5038976;28;20013;-60
2022/03/11 04:32:31;;;;;;;9.52;7.05;;;30.90;99.90;;;;;;5030937;28;20069;-60
2022/03/11 04:34:58;;;;;;;11.05;7.57;;;31.00;99.90;;;;;;5036609;28;20033;-60
2022/03/11 04:37:25;;;;;;;14.25;7.40;;;31.10;99.90;;;;;;5037224;28;20029;-60
2022/03/11 04:39:51;;;;;;;13.75;8.27;;;31.20;99.90;;;;;;5037127;28;20033;-60
2022/03/11 04:42:18;;;;;;;10.73;7.32;;;31.20;99.90;;;;;;5030491;28;20096;-60
2022/03/11 04:44:45;;;;;;;15.93;7.85;;;31.30;99.90;;;;;;5039230;28;20037;-60
2022/03/11 04:47:12;;;;;;;16.27;7.63;;;31.40;99.90;;;;;;5048069;28;20033;-59
2022/03/11 04:49:39;;;;;;;9.05;6.70;;;31.50;99.90;;;;;;5054776;28;20025;-57
2022/03/11 04:52:07;;;;;;;13.82;6.97;;;31.60;99.90;;;;;;5056741;28;20032;-60
2022/03/11 04:54:34;;;;;;;15.38;7.32;;;31.60;99.90;;;;;;5056966;28;20112;-59
2022/03/11 04:57:00;;;;;;;13.00;6.47;;;31.70;99.90;;;;;;5053548;28;20028;-60
2022/03/11 04:59:27;;;;;;;49.17;25.88;;;31.60;99.90;;;;;;5030731;28;20030;-60
2022/03/11 05:01:54;;;;;;;22.50;13.73;;;31.50;99.90;;;;;;5036425;28;20386;-61
2022/03/11 05:04:21;;;;;;;23.33;12.45;;;31.40;99.90;;;;;;5028894;28;20091;-60
2022/03/11 05:06:48;;;;;;;14.60;8.43;;;31.40;99.90;;;;;;5033576;28;20112;-61
2022/03/11 05:09:17;;;;;;;10.63;6.90;;;31.40;99.90;;;;;;5039078;28;20062;-60
2022/03/11 05:11:44;;;;;;;8.27;5.85;;;31.50;99.90;;;;;;5031455;28;20033;-59
2022/03/11 05:14:11;;;;;;;14.18;6.28;;;31.50;99.90;;;;;;5023056;28;20055;-61
2022/03/11 05:16:37;;;;;;;10.95;5.95;;;31.40;99.90;;;;;;5032650;28;20022;-61
2022/03/11 05:19:04;;;;;;;14.52;7.13;;;31.30;99.80;;;;;;5035013;28;20389;-61
2022/03/11 05:21:31;;;;;;;19.38;7.35;;;31.30;99.90;;;;;;5031022;28;20029;-60
2022/03/11 05:23:58;;;;;;;11.18;6.90;;;31.30;99.90;;;;;;5031359;28;20039;-60
2022/03/11 05:26:24;;;;;;;8.40;6.13;;;31.50;99.90;;;;;;5034529;28;20112;-60
2022/03/11 05:28:53;;;;;;;9.82;6.25;;;31.80;99.90;;;;;;5030798;28;20052;-60
2022/03/11 05:31:20;;;;;;;9.38;6.05;;;31.90;99.10;;;;;;5032671;28;20028;-59
2022/03/11 05:33:47;;;;;;;10.35;6.45;;;32.00;98.50;;;;;;5030323;28;20022;-60
2022/03/11 05:36:14;;;;;;;8.85;6.43;;;32.00;98.70;;;;;;5034302;28;20040;-59
2022/03/11 05:38:41;;;;;;;11.90;6.38;;;31.90;99.30;;;;;;5033209;28;20026;-60
2022/03/11 05:41:07;;;;;;;7.97;6.03;;;32.00;99.30;;;;;;5035603;28;20022;-59
2022/03/11 05:43:34;;;;;;;10.60;7.50;;;32.20;97.70;;;;;;5034348;28;20443;-60
2022/03/11 05:46:01;;;;;;;11.70;6.15;;;32.30;97.20;;;;;;5034371;28;20474;-60
2022/03/11 05:48:27;;;;;;;13.68;6.30;;;32.40;96.90;;;;;;5034011;28;20033;-61
2022/03/11 05:50:54;;;;;;;12.82;7.13;;;32.50;96.40;;;;;;5034677;28;20026;-60
2022/03/11 05:53:21;;;;;;;14.45;6.55;;;32.50;95.90;;;;;;5033668;28;20091;-61
2022/03/11 05:55:47;;;;;;;9.43;6.45;;;32.50;96.70;;;;;;5034113;28;20532;-61
2022/03/11 05:58:14;;;;;;;12.07;6.97;;;32.50;96.50;;;;;;5034953;28;20362;-61
2022/03/11 06:00:41;;;;;;;13.02;8.55;;;32.60;95.70;;;;;;5034680;28;20033;-60
2022/03/11 06:03:07;;;;;;;15.18;9.65;;;32.60;96.80;;;;;;5030977;28;20022;-61
2022/03/11 06:05:34;;;;;;;17.65;10.45;;;32.60;96.80;;;;;;5035152;28;20033;-61
2022/03/11 06:08:01;;;;;;;23.42;14.30;;;32.50;96.30;;;;;;5034953;28;20470;-60
2022/03/11 06:10:27;;;;;;;58.03;44.15;;;32.40;96.70;;;;;;5035432;28;20030;-61
2022/03/11 06:12:54;;;;;;;13.60;10.98;;;32.40;96.50;;;;;;5016988;28;20390;-61
2022/03/11 06:15:21;;;;;;;22.00;12.00;;;32.40;96.70;;;;;;5034653;28;20021;-62
2022/03/11 06:17:47;;;;;;;9.10;7.57;;;32.40;96.50;;;;;;5034780;28;20520;-61
2022/03/11 06:20:14;;;;;;;27.98;17.90;;;32.40;95.10;;;;;;5035201;28;20036;-61
2022/03/11 06:22:50;;;;;;;16.15;11.82;;;32.40;95.80;;;;;;5034877;28;20072;-61
2022/03/11 06:25:20;;;;;;;16.23;9.48;;;32.50;96.30;;;;;;5026754;28;20479;-59
2022/03/11 06:27:47;;;;;;;11.10;7.80;;;32.50;96.50;;;;;;5034433;28;20034;-58
2022/03/11 06:30:14;;;;;;;12.90;8.07;;;32.50;95.70;;;;;;5034566;28;20083;-58
2022/03/11 06:32:48;;;;;;;14.65;7.30;;;32.60;95.70;;;;;;5033506;28;20043;-55
2022/03/11 06:35:15;;;;;;;11.00;7.05;;;32.80;95.50;;;;;;5028940;28;20025;-58
2022/03/11 06:37:46;;;;;;;15.98;10.60;;;32.90;95.20;;;;;;5033678;28;20446;-58
2022/03/11 06:40:14;;;;;;;11.00;7.82;;;33.00;94.40;;;;;;5033343;28;20059;-58
2022/03/11 06:42:43;;;;;;;9.82;6.88;;;32.90;93.70;;;;;;5034879;28;20489;-58
2022/03/11 06:45:11;;;;;;;15.05;10.00;;;32.90;92.40;;;;;;5033139;28;20079;-59
2022/03/11 06:47:38;;;;;;;11.98;8.93;;;32.90;94.00;;;;;;5033574;28;20056;-58
2022/03/11 06:50:06;;;;;;;18.23;9.10;;;32.90;92.70;;;;;;5033343;28;20084;-59
2022/03/11 06:52:33;;;;;;;14.18;8.98;;;33.00;93.50;;;;;;5032547;28;20490;-58
2022/03/11 06:55:00;;;;;;;14.90;9.10;;;33.20;93.40;;;;;;5033516;28;20022;-58
2022/03/11 06:57:27;;;;;;;14.98;10.52;;;33.30;92.90;;;;;;5033277;28;20363;-59
2022/03/11 06:59:54;;;;;;;12.30;7.03;;;33.30;93.50;;;;;;5034048;28;20363;-56
2022/03/11 07:02:21;;;;;;;12.73;8.48;;;33.20;91.40;;;;;;5034053;28;20036;-57
2022/03/11 07:04:47;;;;;;;17.88;10.05;;;33.20;92.70;;;;;;5034209;28;20029;-58
2022/03/11 07:07:14;;;;;;;17.35;10.00;;;33.20;92.60;;;;;;5034382;28;20024;-59
2022/03/11 07:09:41;;;;;;;17.67;10.43;;;33.10;92.80;;;;;;5034009;28;20017;-59
2022/03/11 07:12:08;;;;;;;18.20;9.48;;;33.00;93.70;;;;;;5033366;28;20029;-58
2022/03/11 07:14:36;;;;;;;14.63;10.18;;;32.90;93.70;;;;;;5034110;28;20520;-58
2022/03/11 07:17:05;;;;;;;17.17;11.05;;;32.90;94.10;;;;;;5034500;28;20037;-59
2022/03/11 07:19:32;;;;;;;18.83;10.48;;;32.90;92.70;;;;;;5034205;28;20386;-59
2022/03/11 07:22:01;;;;;;;14.98;10.25;;;32.90;93.50;;;;;;5033670;28;20028;-59
2022/03/11 07:24:28;;;;;;;20.23;14.18;;;32.90;92.40;;;;;;5034157;28;20029;-62
2022/03/11 07:26:56;;;;;;;18.77;11.98;;;32.90;92.90;;;;;;5033514;28;20538;-61
2022/03/11 07:29:22;;;;;;;15.07;9.02;;;33.00;93.40;;;;;;5022751;28;20120;-62
2022/03/11 07:31:49;;;;;;;14.90;10.48;;;33.00;92.20;;;;;;5033802;28;20063;-61
2022/03/11 07:34:16;;;;;;;17.52;12.82;;;33.00;92.70;;;;;;5034047;28;20497;-61
2022/03/11 07:36:44;;;;;;;35.00;24.58;;;32.90;92.90;;;;;;5033606;28;20041;-61
2022/03/11 07:39:11;;;;;;;32.08;19.27;;;32.90;92.40;;;;;;5033751;28;20493;-61
2022/03/11 07:41:38;;;;;;;21.83;13.90;;;32.90;93.20;;;;;;5033673;28;20037;-61
2022/03/11 07:44:05;;;;;;;21.30;12.82;;;32.80;93.30;;;;;;5033629;28;20032;-62
2022/03/11 07:46:33;;;;;;;15.77;10.80;;;32.80;93.70;;;;;;5033372;28;20052;-61
2022/03/11 07:49:01;;;;;;;14.45;9.43;;;32.90;92.90;;;;;;5033172;28;20029;-61
2022/03/11 07:51:29;;;;;;;15.35;10.05;;;32.90;92.70;;;;;;5028025;28;20034;-62
2022/03/11 07:53:57;;;;;;;73.20;56.20;;;33.00;93.00;;;;;;5028477;28;20033;-62
2022/03/11 07:56:24;;;;;;;38.13;25.35;;;33.10;92.40;;;;;;5032717;28;20040;-61
2022/03/11 07:58:51;;;;;;;32.08;22.27;;;33.10;92.90;;;;;;5027002;28;20040;-63
2022/03/11 08:01:17;;;;;;;17.75;11.95;;;33.00;92.90;;;;;;5015071;28;20095;-62
2022/03/11 08:03:44;;;;;;;15.00;9.32;;;33.00;92.70;;;;;;5032351;28;20108;-63
2022/03/11 08:06:11;;;;;;;18.50;10.18;;;33.00;92.50;;;;;;5032334;28;20040;-62
2022/03/11 08:08:38;;;;;;;12.35;9.13;;;32.90;93.20;;;;;;5032741;28;20022;-61
2022/03/11 08:11:06;;;;;;;15.15;9.60;;;32.90;92.90;;;;;;5033025;28;20022;-62
2022/03/11 08:13:35;;;;;;;14.13;9.70;;;33.00;93.00;;;;;;5032689;28;20052;-62
2022/03/11 08:16:03;;;;;;;20.95;12.00;;;33.10;91.90;;;;;;5032719;28;20021;-63
2022/03/11 08:18:30;;;;;;;18.75;14.80;;;33.10;91.40;;;;;;5033200;28;20029;-61
2022/03/11 08:20:56;;;;;;;65.38;48.45;;;33.10;92.10;;;;;;5031187;28;20022;-62
2022/03/11 08:23:23;;;;;;;48.78;32.53;;;33.10;92.40;;;;;;5032861;28;20520;-63
2022/03/11 08:25:50;;;;;;;29.27;20.42;;;33.10;92.00;;;;;;5030588;28;20053;-62
2022/03/11 08:28:19;;;;;;;23.15;15.70;;;33.10;91.90;;;;;;5032369;28;20071;-62
2022/03/11 08:30:45;;;;;;;20.58;10.00;;;33.00;91.50;;;;;;5031970;28;20028;-62
2022/03/11 08:33:12;;;;;;;24.42;18.98;;;33.10;91.50;;;;;;5031793;28;20029;-62
2022/03/11 08:35:39;;;;;;;21.73;11.52;;;33.10;91.80;;;;;;5031079;28;20086;-63
2022/03/11 08:38:06;;;;;;;24.83;11.90;;;33.20;92.10;;;;;;5031960;28;20098;-62
2022/03/11 08:40:35;;;;;;;18.67;11.20;;;33.30;91.70;;;;;;5032083;28;20418;-63
2022/03/11 08:43:03;;;;;;;17.73;12.30;;;33.20;91.90;;;;;;5032187;28;20160;-61
2022/03/11 08:45:32;;;;;;;14.25;9.93;;;33.20;92.30;;;;;;5029959;28;20036;-63
2022/03/11 08:47:59;;;;;;;14.85;9.07;;;33.20;91.90;;;;;;5032415;28;20017;-60
2022/03/11 08:50:26;;;;;;;15.30;10.00;;;33.20;92.70;;;;;;5032635;28;20409;-62
2022/03/11 08:52:53;;;;;;;14.07;8.98;;;33.20;92.40;;;;;;5012909;28;20474;-62
2022/03/11 08:55:20;;;;;;;16.45;9.77;;;33.30;92.20;;;;;;5032630;28;20053;-62
2022/03/11 08:57:50;;;;;;;19.20;11.18;;;33.20;91.70;;;;;;5031929;28;20025;-63
2022/03/11 09:00:19;;;;;;;23.40;11.40;;;33.30;91.60;;;;;;5032616;28;20036;-62
2022/03/11 09:02:46;;;;;;;15.10;9.25;;;33.30;91.20;;;;;;5032247;28;20083;-62
2022/03/11 09:05:15;;;;;;;21.05;8.77;;;33.20;92.00;;;;;;5031896;28;20053;-62
2022/03/11 09:07:41;;;;;;;16.02;7.97;;;33.10;92.50;;;;;;5032029;28;20045;-62
2022/03/11 09:10:11;;;;;;;20.83;8.02;;;32.80;92.20;;;;;;5032605;28;20398;-61
2022/03/11 09:12:38;;;;;;;15.90;9.10;;;32.60;92.60;;;;;;5032670;28;20027;-61
2022/03/11 09:15:06;;;;;;;17.60;8.38;;;32.50;93.20;;;;;;5032828;28;20067;-61
2022/03/11 09:17:34;;;;;;;10.98;7.60;;;32.40;93.80;;;;;;5031974;28;20478;-61
2022/03/11 09:20:03;;;;;;;20.15;8.55;;;32.30;93.50;;;;;;5033977;28;20120;-61
2022/03/11 09:22:32;;;;;;;15.90;8.23;;;32.30;93.40;;;;;;5035493;28;20033;-60
2022/03/11 09:25:01;;;;;;;39.60;26.20;;;32.20;94.00;;;;;;5035799;28;20024;-61
2022/03/11 09:27:29;;;;;;;48.67;32.08;;;32.20;94.50;;;;;;5035888;28;20100;-60
2022/03/11 09:29:56;;;;;;;45.75;32.13;;;32.20;95.00;;;;;;5035603;28;20378;-61
2022/03/11 09:32:24;;;;;;;22.63;12.90;;;32.20;95.20;;;;;;5036032;28;20506;-62
2022/03/11 09:34:51;;;;;;;19.85;11.88;;;32.20;95.10;;;;;;5035902;28;20052;-61
2022/03/11 09:37:18;;;;;;;20.60;10.80;;;32.10;95.40;;;;;;5018065;28;20364;-61
2022/03/11 09:39:45;;;;;;;18.55;10.52;;;32.10;95.70;;;;;;5035869;28;20024;-60
2022/03/11 09:42:12;;;;;;;16.77;9.95;;;32.10;95.70;;;;;;5035270;28;20044;-62
2022/03/11 09:44:42;;;;;;;20.65;12.95;;;32.00;95.70;;;;;;5035979;28;20025;-60
2022/03/11 09:47:09;;;;;;;46.28;30.85;;;32.00;95.70;;;;;;5035616;28;20109;-60
2022/03/11 09:49:38;;;;;;;58.72;37.15;;;31.90;95.30;;;;;;5034258;28;20104;-60
2022/03/11 09:52:06;;;;;;;26.05;15.77;;;32.00;95.70;;;;;;5034008;28;20119;-60
2022/03/11 09:54:34;;;;;;;14.85;10.07;;;31.90;96.00;;;;;;5034720;28;20029;-60
2022/03/11 09:57:01;;;;;;;15.18;9.38;;;31.90;95.50;;;;;;5035128;28;20036;-60
2022/03/11 09:59:28;;;;;;;87.20;60.25;;;31.80;95.30;;;;;;5034469;28;20561;-60
2022/03/11 10:01:55;;;;;;;1236.50;755.53;;;31.70;95.50;;;;;;5015270;28;20537;-60
2022/03/11 10:04:22;;;;;;;1999.90;999.90;;;31.60;95.90;;;;;;5015721;28;20075;-61
2022/03/11 10:06:51;;;;;;;1999.90;994.55;;;31.60;95.40;;;;;;5022469;28;20032;-60
2022/03/11 10:09:18;;;;;;;1136.18;708.55;;;31.60;95.40;;;;;;5035531;28;20029;-60
2022/03/11 10:11:52;;;;;;;1999.90;999.90;;;31.60;95.60;;;;;;5035459;28;20338;-61
2022/03/11 10:14:35;;;;;;;1751.65;916.55;;;31.60;95.60;;;;;;5034717;28;20085;-60
2022/03/11 10:17:04;;;;;;;1871.60;938.58;;;31.60;96.00;;;;;;5035235;28;20026;-60
2022/03/11 10:19:31;;;;;;;1999.90;999.90;;;31.70;95.60;;;;;;5034974;28;20086;-60
2022/03/11 10:21:59;;;;;;;431.67;352.63;;;31.70;95.60;;;;;;5028516;28;20025;-60
2022/03/11 10:24:27;;;;;;;696.20;579.80;;;31.60;95.70;;;;;;5028414;28;20029;-60
2022/03/11 10:26:58;;;;;;;706.47;555.33;;;31.60;96.10;;;;;;5030941;28;20073;-60
2022/03/11 10:29:27;;;;;;;1187.38;825.80;;;31.50;96.20;;;;;;5028486;28;20026;-61
2022/03/11 10:31:58;;;;;;;1351.07;850.83;;;31.40;96.70;;;;;;5030779;28;20034;-59
2022/03/11 10:34:26;;;;;;;1559.95;902.08;;;31.40;96.80;;;;;;5027042;28;20045;-59
2022/03/11 10:36:57;;;;;;;918.15;706.20;;;31.30;97.10;;;;;;5034281;28;20067;-59
2022/03/11 10:39:36;;;;;;;542.03;438.05;;;31.40;97.10;;;;;;5028620;28;20061;-60
2022/03/11 10:42:12;;;;;;;1999.90;947.05;;;31.30;97.20;;;;;;5029022;28;20473;-60
2022/03/11 10:44:40;;;;;;;1204.68;799.45;;;31.30;97.40;;;;;;5021703;28;20037;-60
2022/03/11 10:47:26;;;;;;;504.50;358.27;;;31.30;97.40;;;;;;5034626;28;20029;-60
2022/03/11 10:49:56;;;;;;;965.83;705.58;;;31.20;97.70;;;;;;5023589;28;20057;-59
2022/03/11 10:52:44;;;;;;;686.58;532.63;;;31.20;97.90;;;;;;5033319;28;20482;-60
2022/03/11 10:55:23;;;;;;;893.13;652.33;;;31.10;98.30;;;;;;5031554;28;20040;-59
2022/03/11 10:57:59;;;;;;;624.63;524.70;;;31.20;98.40;;;;;;5024083;28;20025;-60
2022/03/11 11:00:26;;;;;;;934.75;698.55;;;31.20;98.30;;;;;;5027321;28;20120;-59
2022/03/11 11:03:13;;;;;;;879.45;683.92;;;31.10;98.50;;;;;;5014772;28;20506;-60
2022/03/11 11:05:41;;;;;;;1533.82;945.65;;;31.00;98.60;;;;;;5025834;28;20026;-59
2022/03/11 11:08:09;;;;;;;1999.90;999.90;;;31.00;98.90;;;;;;5033611;28;20386;-60
2022/03/11 11:10:38;;;;;;;1999.90;999.90;;;30.90;98.90;;;;;;5032496;28;20079;-59
2022/03/11 11:13:06;;;;;;;1332.43;729.83;;;30.90;99.80;;;;;;5030643;28;20076;-61
2022/03/11 11:15:33;;;;;;;1999.90;976.55;;;30.80;99.70;;;;;;5023488;28;20033;-59
2022/03/11 11:18:07;;;;;;;624.30;399.63;;;30.70;99.90;;;;;;5034244;28;20421;-59
2022/03/11 11:20:54;;;;;;;618.75;420.13;;;30.70;99.90;;;;;;5032280;28;20033;-59
2022/03/11 11:23:24;;;;;;;1999.90;999.90;;;30.80;99.90;;;;;;5017975;28;20065;-60
2022/03/11 11:25:52;;;;;;;1999.90;977.40;;;30.80;99.90;;;;;;5028056;28;20470;-59
2022/03/11 11:28:21;;;;;;;523.05;305.00;;;30.70;99.90;;;;;;5033084;28;20063;-59
2022/03/11 11:30:52;;;;;;;80.53;49.08;;;30.80;99.90;;;;;;5022707;28;20021;-59
2022/03/11 11:33:20;;;;;;;702.00;438.87;;;30.70;99.90;;;;;;5033252;28;20029;-60
2022/03/11 11:35:47;;;;;;;708.65;423.15;;;30.70;99.90;;;;;;5026626;28;20033;-61
2022/03/11 11:38:37;;;;;;;700.35;388.20;;;30.70;99.90;;;;;;5033719;28;20056;-61
2022/03/11 11:41:24;;;;;;;708.08;393.63;;;30.60;99.90;;;;;;5026782;28;20030;-61
2022/03/11 11:43:59;;;;;;;207.00;95.45;;;30.60;99.90;;;;;;5028598;28;20071;-61
2022/03/11 11:46:30;;;;;;;324.88;146.50;;;30.50;99.90;;;;;;5029339;28;20037;-60
2022/03/11 11:49:02;;;;;;;436.70;197.95;;;30.50;99.90;;;;;;5033122;28;20025;-60
2022/03/11 11:51:37;;;;;;;229.05;107.90;;;30.50;99.90;;;;;;5017929;28;20025;-59
2022/03/11 11:54:15;;;;;;;83.47;46.97;;;30.50;99.90;;;;;;5028341;28;20029;-60
2022/03/11 11:56:45;;;;;;;394.67;209.35;;;30.60;99.90;;;;;;5018867;28;20030;-59
2022/03/11 11:59:17;;;;;;;141.70;78.28;;;30.50;99.90;;;;;;5028362;28;20026;-60
2022/03/11 12:01:47;;;;;;;400.67;222.10;;;30.40;99.90;;;;;;5032164;28;20544;-59
2022/03/11 12:04:36;;;;;;;294.98;161.35;;;30.40;99.90;;;;;;5027388;28;20033;-61
2022/03/11 12:07:05;;;;;;;104.63;57.42;;;30.40;99.90;;;;;;5025945;28;20383;-59
2022/03/11 12:09:42;;;;;;;448.08;242.57;;;30.40;99.90;;;;;;5031967;28;20414;-56
2022/03/11 12:12:38;;;;;;;336.80;178.27;;;30.40;99.90;;;;;;5032040;28;20475;-59
2022/03/11 12:15:05;;;;;;;198.50;106.45;;;30.30;99.90;;;;;;5023578;28;20478;-61
2022/03/11 12:17:58;;;;;;;99.70;54.58;;;30.30;99.90;;;;;;5023861;28;20112;-60
2022/03/11 12:20:38;;;;;;;102.45;58.53;;;30.30;99.90;;;;;;5029518;28;20061;-59
2022/03/11 12:23:08;;;;;;;60.53;35.17;;;30.40;99.90;;;;;;5018287;28;20029;-59
2022/03/11 12:25:40;;;;;;;71.15;39.15;;;30.30;99.90;;;;;;5022309;28;20042;-60
2022/03/11 12:28:17;;;;;;;;;;;30.10;99.90;;;;;;5031731;28;20029;-59
2022/03/11 12:31:03;;;;;;;34.03;16.88;;;29.90;99.90;;;;;;5032693;28;19909;-60
2022/03/11 12:33:32;;;;;;;30.50;15.77;;;29.60;99.90;;;;;;5023597;28;20025;-59